sensor_id;sensor_type;location;lat;lon;timestamp;temperature;humidity
54576;DHT22;40472;53.486;14.542;2022-07-12T00:00:36;13.90;99.90
54576;DHT22;40472;53.486;14.542;2022-07-12T00:03:01;13.90;99.90
54576;DHT22;40472;53.486;14.542;2022-07-12T00:05:27;13.80;99.90
54576;DHT22;40472;53.486;14.542;2022-07-12T00:07:53;13.80;99.90
54576;DHT22;40472;53.486;14.542;2022-07-12T00:10:19;13.90;99.90
54576;DHT22;40472;53.486;14.542;2022-07-12T00:12:44;13.90;99.90
54576;DHT22;40472;53.486;14.542;2022-07-12T00:15:10;13.80;99.90
54576;DHT22;40472;53.486;14.542;2022-07-12T00:17:36;13.80;99.90
54576;DHT22;40472;53.486;14.542;2022-07-12T00:20:04;13.80;99.90
54576;DHT22;40472;53.486;14.542;2022-07-12T00:22:30;13.80;99.90
54576;DHT22;40472;53.486;14.542;2022-07-12T00:24:55;13.80;99.90
54576;DHT22;40472;53.486;14.542;2022-07-12T00:27:21;13.80;99.90
54576;DHT22;40472;53.486;14.542;2022-07-12T00:29:47;13.70;99.90
54576;DHT22;40472;53.486;14.542;2022-07-12T00:32:13;13.80;99.90
54576;DHT22;40472;53.486;14.542;2022-07-12T00:34:38;13.70;99.90
54576;DHT22;40472;53.486;14.542;2022-07-12T00:37:04;13.70;99.90
54576;DHT22;40472;53.486;14.542;2022-07-12T00:39:30;13.70;99.90
54576;DHT22;40472;53.486;14.542;2022-07-12T00:41:55;13.60;99.90
54576;DHT22;40472;53.486;14.542;2022-07-12T00:44:21;13.60;99.90
54576;DHT22;40472;53.486;14.542;2022-07-12T00:46:47;13.60;99.90
54576;DHT22;40472;53.486;14.542;2022-07-12T00:49:13;13.60;99.90
54576;DHT22;40472;53.486;14.542;2022-07-12T00:51:42;13.50;99.90
54576;DHT22;40472;53.486;14.542;2022-07-12T00:54:09;13.50;99.90
54576;DHT22;40472;53.486;14.542;2022-07-12T00:56:36;13.50;99.90
54576;DHT22;40472;53.486;14.542;2022-07-12T00:59:02;13.50;99.90
54576;DHT22;40472;53.486;14.542;2022-07-12T01:01:28;13.50;99.90
54576;DHT22;40472;53.486;14.542;2022-07-12T01:03:54;13.50;99.90
54576;DHT22;40472;53.486;14.542;2022-07-12T01:06:22;13.50;99.90
54576;DHT22;40472;53.486;14.542;2022-07-12T01:08:48;13.40;99.90
54576;DHT22;40472;53.486;14.542;2022-07-12T01:11:15;13.40;99.90
54576;DHT22;40472;53.486;14.542;2022-07-12T01:13:42;13.40;99.90
54576;DHT22;40472;53.486;14.542;2022-07-12T01:16:08;13.30;99.90
54576;DHT22;40472;53.486;14.542;2022-07-12T01:18:36;13.30;99.90
54576;DHT22;40472;53.486;14.542;2022-07-12T01:21:04;13.30;99.90
54576;DHT22;40472;53.486;14.542;2022-07-12T01:23:31;13.40;99.90
54576;DHT22;40472;53.486;14.542;2022-07-12T01:25:57;13.40;99.90
54576;DHT22;40472;53.486;14.542;2022-07-12T01:28:23;13.40;99.90
54576;DHT22;40472;53.486;14.542;2022-07-12T01:30:49;13.40;99.90
54576;DHT22;40472;53.486;14.542;2022-07-12T01:33:15;13.30;99.90
54576;DHT22;40472;53.486;14.542;2022-07-12T01:35:41;13.30;99.90
54576;DHT22;40472;53.486;14.542;2022-07-12T01:38:08;13.20;99.90
54576;DHT22;40472;53.486;14.542;2022-07-12T01:40:33;13.30;99.90
54576;DHT22;40472;53.486;14.542;2022-07-12T01:43:01;13.30;99.90
54576;DHT22;40472;53.486;14.542;2022-07-12T01:45:27;13.30;99.90
54576;DHT22;40472;53.486;14.542;2022-07-12T01:47:53;13.20;99.90
54576;DHT22;40472;53.486;14.542;2022-07-12T01:50:19;13.20;99.90
54576;DHT22;40472;53.486;14.542;2022-07-12T01:52:45;13.20;99.90
54576;DHT22;40472;53.486;14.542;2022-07-12T01:55:11;13.20;99.90
54576;DHT22;40472;53.486;14.542;2022-07-12T01:57:38;13.20;99.90
54576;DHT22;40472;53.486;14.542;2022-07-12T02:00:05;13.10;99.90
54576;DHT22;40472;53.486;14.542;2022-07-12T02:02:31;13.10;99.90
54576;DHT22;40472;53.486;14.542;2022-07-12T02:05:02;13.00;99.90
54576;DHT22;40472;53.486;14.542;2022-07-12T02:07:28;13.00;99.90
54576;DHT22;40472;53.486;14.542;2022-07-12T02:09:54;12.90;99.90
54576;DHT22;40472;53.486;14.542;2022-07-12T02:12:20;12.80;99.90
54576;DHT22;40472;53.486;14.542;2022-07-12T02:14:47;12.80;99.90
54576;DHT22;40472;53.486;14.542;2022-07-12T02:17:12;12.90;99.90
54576;DHT22;40472;53.486;14.542;2022-07-12T02:19:38;12.80;99.90
54576;DHT22;40472;53.486;14.542;2022-07-12T02:22:04;12.80;99.90
54576;DHT22;40472;53.486;14.542;2022-07-12T02:24:30;12.80;99.90
54576;DHT22;40472;53.486;14.542;2022-07-12T02:26:55;12.70;99.90
54576;DHT22;40472;53.486;14.542;2022-07-12T02:29:21;12.80;99.90
54576;DHT22;40472;53.486;14.542;2022-07-12T02:31:47;12.70;99.90
54576;DHT22;40472;53.486;14.542;2022-07-12T02:34:12;12.70;99.90
54576;DHT22;40472;53.486;14.542;2022-07-12T02:36:38;12.70;99.90
54576;DHT22;40472;53.486;14.542;2022-07-12T02:39:04;12.70;99.90
54576;DHT22;40472;53.486;14.542;2022-07-12T02:41:32;12.70;99.90
54576;DHT22;40472;53.486;14.542;2022-07-12T02:43:59;12.70;99.90
54576;DHT22;40472;53.486;14.542;2022-07-12T02:46:25;12.60;99.90
54576;DHT22;40472;53.486;14.542;2022-07-12T02:48:51;12.60;99.90
54576;DHT22;40472;53.486;14.542;2022-07-12T02:51:18;12.50;99.90
54576;DHT22;40472;53.486;14.542;2022-07-12T02:53:44;12.50;99.90
54576;DHT22;40472;53.486;14.542;2022-07-12T02:56:10;12.50;99.90
54576;DHT22;40472;53.486;14.542;2022-07-12T02:58:37;12.60;99.90
54576;DHT22;40472;53.486;14.542;2022-07-12T03:01:03;12.60;99.90
54576;DHT22;40472;53.486;14.542;2022-07-12T03:03:29;12.60;99.90
54576;DHT22;40472;53.486;14.542;2022-07-12T03:05:55;12.60;99.90
54576;DHT22;40472;53.486;14.542;2022-07-12T03:08:21;12.70;99.90
54576;DHT22;40472;53.486;14.542;2022-07-12T03:10:47;12.80;99.90
54576;DHT22;40472;53.486;14.542;2022-07-12T03:13:13;12.80;99.90
54576;DHT22;40472;53.486;14.542;2022-07-12T03:15:39;12.80;99.90
54576;DHT22;40472;53.486;14.542;2022-07-12T03:18:05;12.80;99.90
54576;DHT22;40472;53.486;14.542;2022-07-12T03:20:31;12.80;99.90
54576;DHT22;40472;53.486;14.542;2022-07-12T03:22:57;12.80;99.90
54576;DHT22;40472;53.486;14.542;2022-07-12T03:25:24;12.70;99.90
54576;DHT22;40472;53.486;14.542;2022-07-12T03:27:50;12.70;99.90
54576;DHT22;40472;53.486;14.542;2022-07-12T03:30:16;12.80;99.90
54576;DHT22;40472;53.486;14.542;2022-07-12T03:32:42;12.80;99.90
54576;DHT22;40472;53.486;14.542;2022-07-12T03:35:09;12.80;99.90
54576;DHT22;40472;53.486;14.542;2022-07-12T03:37:48;12.80;99.90
54576;DHT22;40472;53.486;14.542;2022-07-12T03:40:16;12.90;99.90
54576;DHT22;40472;53.486;14.542;2022-07-12T03:42:42;12.90;99.90
54576;DHT22;40472;53.486;14.542;2022-07-12T03:45:09;12.90;99.90
54576;DHT22;40472;53.486;14.542;2022-07-12T03:47:38;12.90;99.90
54576;DHT22;40472;53.486;14.542;2022-07-12T03:50:07;12.90;99.90
54576;DHT22;40472;53.486;14.542;2022-07-12T03:52:33;13.00;99.90
54576;DHT22;40472;53.486;14.542;2022-07-12T03:54:59;13.00;99.90
54576;DHT22;40472;53.486;14.542;2022-07-12T03:57:27;13.00;99.90
54576;DHT22;40472;53.486;14.542;2022-07-12T03:59:54;13.00;99.90
54576;DHT22;40472;53.486;14.542;2022-07-12T04:02:21;13.10;99.90
54576;DHT22;40472;53.486;14.542;2022-07-12T04:04:47;13.20;99.90
54576;DHT22;40472;53.486;14.542;2022-07-12T04:07:13;13.30;99.90
54576;DHT22;40472;53.486;14.542;2022-07-12T04:09:39;13.30;99.90
54576;DHT22;40472;53.486;14.542;2022-07-12T04:12:05;13.30;99.90
54576;DHT22;40472;53.486;14.542;2022-07-12T04:14:31;13.30;99.90
54576;DHT22;40472;53.486;14.542;2022-07-12T04:16:56;13.30;99.90
54576;DHT22;40472;53.486;14.542;2022-07-12T04:19:22;13.40;99.90
54576;DHT22;40472;53.486;14.542;2022-07-12T04:21:58;13.30;99.90
54576;DHT22;40472;53.486;14.542;2022-07-12T04:24:24;13.40;99.90
54576;DHT22;40472;53.486;14.542;2022-07-12T04:26:51;13.50;99.90
54576;DHT22;40472;53.486;14.542;2022-07-12T04:29:18;13.60;99.90
54576;DHT22;40472;53.486;14.542;2022-07-12T04:31:44;13.60;99.90
54576;DHT22;40472;53.486;14.542;2022-07-12T04:34:10;13.60;99.90
54576;DHT22;40472;53.486;14.542;2022-07-12T04:36:36;13.70;99.90
54576;DHT22;40472;53.486;14.542;2022-07-12T04:39:02;13.70;99.90
54576;DHT22;40472;53.486;14.542;2022-07-12T04:41:28;13.80;99.90
54576;DHT22;40472;53.486;14.542;2022-07-12T04:43:54;13.80;99.90
54576;DHT22;40472;53.486;14.542;2022-07-12T04:46:19;14.00;99.90
54576;DHT22;40472;53.486;14.542;2022-07-12T04:48:45;14.00;99.90
54576;DHT22;40472;53.486;14.542;2022-07-12T04:51:11;14.10;99.90
54576;DHT22;40472;53.486;14.542;2022-07-12T04:53:36;14.20;99.90
54576;DHT22;40472;53.486;14.542;2022-07-12T04:56:02;14.30;99.90
54576;DHT22;40472;53.486;14.542;2022-07-12T04:58:28;14.40;99.90
54576;DHT22;40472;53.486;14.542;2022-07-12T05:00:54;14.50;99.90
54576;DHT22;40472;53.486;14.542;2022-07-12T05:03:19;14.60;99.90
54576;DHT22;40472;53.486;14.542;2022-07-12T05:05:45;14.70;99.90
54576;DHT22;40472;53.486;14.542;2022-07-12T05:08:11;14.80;99.90
54576;DHT22;40472;53.486;14.542;2022-07-12T05:10:36;14.80;99.90
54576;DHT22;40472;53.486;14.542;2022-07-12T05:13:02;14.80;99.90
54576;DHT22;40472;53.486;14.542;2022-07-12T05:15:28;14.90;99.90
54576;DHT22;40472;53.486;14.542;2022-07-12T05:17:53;15.00;99.90
54576;DHT22;40472;53.486;14.542;2022-07-12T05:20:19;15.00;99.90
54576;DHT22;40472;53.486;14.542;2022-07-12T05:22:45;15.10;99.90
54576;DHT22;40472;53.486;14.542;2022-07-12T05:25:11;15.10;99.90
54576;DHT22;40472;53.486;14.542;2022-07-12T05:27:37;15.30;99.90
54576;DHT22;40472;53.486;14.542;2022-07-12T05:30:03;15.30;99.90
54576;DHT22;40472;53.486;14.542;2022-07-12T05:32:29;15.40;99.90
54576;DHT22;40472;53.486;14.542;2022-07-12T05:34:55;15.50;99.90
54576;DHT22;40472;53.486;14.542;2022-07-12T05:37:21;15.50;99.90
54576;DHT22;40472;53.486;14.542;2022-07-12T05:39:50;15.60;99.90
54576;DHT22;40472;53.486;14.542;2022-07-12T05:42:16;15.80;99.90
54576;DHT22;40472;53.486;14.542;2022-07-12T05:44:42;15.80;99.90
54576;DHT22;40472;53.486;14.542;2022-07-12T05:47:08;15.90;99.90
54576;DHT22;40472;53.486;14.542;2022-07-12T05:49:33;16.00;99.90
54576;DHT22;40472;53.486;14.542;2022-07-12T05:51:59;16.10;99.90
54576;DHT22;40472;53.486;14.542;2022-07-12T05:54:43;16.10;99.90
54576;DHT22;40472;53.486;14.542;2022-07-12T05:57:09;16.10;99.90
54576;DHT22;40472;53.486;14.542;2022-07-12T05:59:35;16.20;99.90
54576;DHT22;40472;53.486;14.542;2022-07-12T06:02:01;16.30;99.90
54576;DHT22;40472;53.486;14.542;2022-07-12T06:04:27;16.40;99.90
54576;DHT22;40472;53.486;14.542;2022-07-12T06:06:52;16.50;99.90
54576;DHT22;40472;53.486;14.542;2022-07-12T06:09:18;16.50;99.90
54576;DHT22;40472;53.486;14.542;2022-07-12T06:11:44;16.70;99.90
54576;DHT22;40472;53.486;14.542;2022-07-12T06:14:09;16.70;99.90
54576;DHT22;40472;53.486;14.542;2022-07-12T06:16:35;16.80;99.90
54576;DHT22;40472;53.486;14.542;2022-07-12T06:19:01;16.70;99.90
54576;DHT22;40472;53.486;14.542;2022-07-12T06:21:27;16.70;99.90
54576;DHT22;40472;53.486;14.542;2022-07-12T06:23:52;16.80;99.90
54576;DHT22;40472;53.486;14.542;2022-07-12T06:26:18;16.90;99.90
54576;DHT22;40472;53.486;14.542;2022-07-12T06:28:44;16.90;99.90
54576;DHT22;40472;53.486;14.542;2022-07-12T06:31:10;17.00;99.90
54576;DHT22;40472;53.486;14.542;2022-07-12T06:33:36;17.00;99.90
54576;DHT22;40472;53.486;14.542;2022-07-12T06:36:02;17.10;99.90
54576;DHT22;40472;53.486;14.542;2022-07-12T06:38:28;17.20;99.90
54576;DHT22;40472;53.486;14.542;2022-07-12T06:40:53;17.30;99.90
54576;DHT22;40472;53.486;14.542;2022-07-12T06:43:19;17.40;99.90
54576;DHT22;40472;53.486;14.542;2022-07-12T06:45:45;17.60;99.90
54576;DHT22;40472;53.486;14.542;2022-07-12T06:48:10;17.60;99.90
54576;DHT22;40472;53.486;14.542;2022-07-12T06:50:36;17.60;99.90
54576;DHT22;40472;53.486;14.542;2022-07-12T06:53:03;17.70;99.90
54576;DHT22;40472;53.486;14.542;2022-07-12T06:55:29;17.80;99.90
54576;DHT22;40472;53.486;14.542;2022-07-12T06:57:55;17.90;99.90
54576;DHT22;40472;53.486;14.542;2022-07-12T07:00:21;17.90;99.90
54576;DHT22;40472;53.486;14.542;2022-07-12T07:02:47;18.00;99.90
54576;DHT22;40472;53.486;14.542;2022-07-12T07:05:14;18.10;99.90
54576;DHT22;40472;53.486;14.542;2022-07-12T07:07:41;18.20;99.90
54576;DHT22;40472;53.486;14.542;2022-07-12T07:10:07;18.20;99.90
54576;DHT22;40472;53.486;14.542;2022-07-12T07:12:33;18.20;99.90
54576;DHT22;40472;53.486;14.542;2022-07-12T07:14:59;18.30;99.90
54576;DHT22;40472;53.486;14.542;2022-07-12T07:17:24;18.30;99.90
54576;DHT22;40472;53.486;14.542;2022-07-12T07:19:50;18.40;99.90
54576;DHT22;40472;53.486;14.542;2022-07-12T07:22:16;18.40;99.90
54576;DHT22;40472;53.486;14.542;2022-07-12T07:24:42;18.60;99.90
54576;DHT22;40472;53.486;14.542;2022-07-12T07:27:09;18.60;99.90
54576;DHT22;40472;53.486;14.542;2022-07-12T07:29:35;18.70;99.90
54576;DHT22;40472;53.486;14.542;2022-07-12T07:32:19;18.80;99.90
54576;DHT22;40472;53.486;14.542;2022-07-12T07:34:45;18.80;99.90
54576;DHT22;40472;53.486;14.542;2022-07-12T07:37:10;18.80;99.90
54576;DHT22;40472;53.486;14.542;2022-07-12T07:39:36;18.90;99.90
54576;DHT22;40472;53.486;14.542;2022-07-12T07:42:02;19.00;99.90
54576;DHT22;40472;53.486;14.542;2022-07-12T07:44:29;19.10;99.90
54576;DHT22;40472;53.486;14.542;2022-07-12T07:46:54;19.20;99.90
54576;DHT22;40472;53.486;14.542;2022-07-12T07:49:20;19.20;99.90
54576;DHT22;40472;53.486;14.542;2022-07-12T07:51:47;19.40;99.90
54576;DHT22;40472;53.486;14.542;2022-07-12T07:54:13;19.50;99.90
54576;DHT22;40472;53.486;14.542;2022-07-12T07:56:39;19.50;99.90
54576;DHT22;40472;53.486;14.542;2022-07-12T07:59:05;19.60;99.90
54576;DHT22;40472;53.486;14.542;2022-07-12T08:01:33;19.60;99.90
54576;DHT22;40472;53.486;14.542;2022-07-12T08:04:20;19.70;99.90
54576;DHT22;40472;53.486;14.542;2022-07-12T08:06:46;19.80;99.90
54576;DHT22;40472;53.486;14.542;2022-07-12T08:09:15;19.80;99.90
54576;DHT22;40472;53.486;14.542;2022-07-12T08:11:42;19.90;99.90
54576;DHT22;40472;53.486;14.542;2022-07-12T08:14:09;19.90;99.90
54576;DHT22;40472;53.486;14.542;2022-07-12T08:16:37;20.00;99.90
54576;DHT22;40472;53.486;14.542;2022-07-12T08:19:03;20.10;99.90
54576;DHT22;40472;53.486;14.542;2022-07-12T08:21:29;20.10;99.90
54576;DHT22;40472;53.486;14.542;2022-07-12T08:23:55;20.10;99.90
54576;DHT22;40472;53.486;14.542;2022-07-12T08:26:22;20.20;99.90
54576;DHT22;40472;53.486;14.542;2022-07-12T08:28:48;20.20;99.90
54576;DHT22;40472;53.486;14.542;2022-07-12T08:31:14;20.30;99.90
54576;DHT22;40472;53.486;14.542;2022-07-12T08:33:40;20.30;99.90
54576;DHT22;40472;53.486;14.542;2022-07-12T08:36:07;20.30;99.90
54576;DHT22;40472;53.486;14.542;2022-07-12T08:38:34;20.40;99.90
54576;DHT22;40472;53.486;14.542;2022-07-12T08:41:03;20.40;99.90
54576;DHT22;40472;53.486;14.542;2022-07-12T08:43:28;20.40;99.90
54576;DHT22;40472;53.486;14.542;2022-07-12T08:45:54;20.40;99.90
54576;DHT22;40472;53.486;14.542;2022-07-12T08:48:20;20.60;99.90
54576;DHT22;40472;53.486;14.542;2022-07-12T08:51:00;20.60;99.90
54576;DHT22;40472;53.486;14.542;2022-07-12T08:53:27;20.60;99.90
54576;DHT22;40472;53.486;14.542;2022-07-12T08:55:52;20.60;99.90
54576;DHT22;40472;53.486;14.542;2022-07-12T08:58:18;20.70;99.90
54576;DHT22;40472;53.486;14.542;2022-07-12T09:00:44;20.80;99.90
54576;DHT22;40472;53.486;14.542;2022-07-12T09:03:09;20.90;99.90
54576;DHT22;40472;53.486;14.542;2022-07-12T09:05:37;21.00;99.90
54576;DHT22;40472;53.486;14.542;2022-07-12T09:08:08;21.20;99.90
54576;DHT22;40472;53.486;14.542;2022-07-12T09:10:36;21.20;99.90
54576;DHT22;40472;53.486;14.542;2022-07-12T09:13:16;21.10;99.90
54576;DHT22;40472;53.486;14.542;2022-07-12T09:15:42;21.20;99.90
54576;DHT22;40472;53.486;14.542;2022-07-12T09:18:09;21.10;99.90
54576;DHT22;40472;53.486;14.542;2022-07-12T09:20:40;21.10;99.90
54576;DHT22;40472;53.486;14.542;2022-07-12T09:23:08;21.20;99.90
54576;DHT22;40472;53.486;14.542;2022-07-12T09:25:37;21.20;99.90
54576;DHT22;40472;53.486;14.542;2022-07-12T09:28:07;21.20;99.90
54576;DHT22;40472;53.486;14.542;2022-07-12T09:30:35;21.40;99.90
54576;DHT22;40472;53.486;14.542;2022-07-12T09:33:05;21.40;99.90
54576;DHT22;40472;53.486;14.542;2022-07-12T09:41:00;21.50;99.60
54576;DHT22;40472;53.486;14.542;2022-07-12T09:43:27;21.40;99.20
54576;DHT22;40472;53.486;14.542;2022-07-12T09:45:53;21.50;99.90
54576;DHT22;40472;53.486;14.542;2022-07-12T09:48:19;21.50;99.20
54576;DHT22;40472;53.486;14.542;2022-07-12T09:50:48;21.60;99.00
54576;DHT22;40472;53.486;14.542;2022-07-12T09:53:38;21.60;99.40
54576;DHT22;40472;53.486;14.542;2022-07-12T09:56:05;21.60;99.40
54576;DHT22;40472;53.486;14.542;2022-07-12T09:58:39;21.70;99.10
54576;DHT22;40472;53.486;14.542;2022-07-12T10:01:07;21.70;98.10
54576;DHT22;40472;53.486;14.542;2022-07-12T10:03:35;21.80;98.50
54576;DHT22;40472;53.486;14.542;2022-07-12T10:06:02;21.70;99.10
54576;DHT22;40472;53.486;14.542;2022-07-12T10:08:30;21.80;97.30
54576;DHT22;40472;53.486;14.542;2022-07-12T10:10:56;21.80;96.20
54576;DHT22;40472;53.486;14.542;2022-07-12T10:13:23;21.80;95.50
54576;DHT22;40472;53.486;14.542;2022-07-12T10:15:50;21.80;96.60
54576;DHT22;40472;53.486;14.542;2022-07-12T10:18:20;22.00;97.00
54576;DHT22;40472;53.486;14.542;2022-07-12T10:20:50;22.10;95.90
54576;DHT22;40472;53.486;14.542;2022-07-12T10:23:34;22.10;96.90
54576;DHT22;40472;53.486;14.542;2022-07-12T10:29:04;22.20;95.00
54576;DHT22;40472;53.486;14.542;2022-07-12T10:31:38;22.30;94.70
54576;DHT22;40472;53.486;14.542;2022-07-12T10:39:30;22.10;93.10
54576;DHT22;40472;53.486;14.542;2022-07-12T10:46:59;22.40;92.80
54576;DHT22;40472;53.486;14.542;2022-07-12T10:49:27;22.20;93.50
54576;DHT22;40472;53.486;14.542;2022-07-12T10:54:39;22.20;94.40
54576;DHT22;40472;53.486;14.542;2022-07-12T10:57:06;22.40;94.30
54576;DHT22;40472;53.486;14.542;2022-07-12T10:59:34;22.50;94.40
54576;DHT22;40472;53.486;14.542;2022-07-12T11:02:01;22.60;92.50
54576;DHT22;40472;53.486;14.542;2022-07-12T11:04:28;22.70;92.60
54576;DHT22;40472;53.486;14.542;2022-07-12T11:06:55;22.90;92.00
54576;DHT22;40472;53.486;14.542;2022-07-12T11:09:23;22.80;92.20
54576;DHT22;40472;53.486;14.542;2022-07-12T11:11:50;22.80;92.70
54576;DHT22;40472;53.486;14.542;2022-07-12T11:14:27;22.70;90.90
54576;DHT22;40472;53.486;14.542;2022-07-12T11:16:55;22.80;92.50
54576;DHT22;40472;53.486;14.542;2022-07-12T11:19:26;23.00;90.00
54576;DHT22;40472;53.486;14.542;2022-07-12T11:21:53;23.00;90.20
54576;DHT22;40472;53.486;14.542;2022-07-12T11:24:25;23.10;88.00
54576;DHT22;40472;53.486;14.542;2022-07-12T11:26:51;22.90;86.90
54576;DHT22;40472;53.486;14.542;2022-07-12T11:29:18;22.80;86.50
54576;DHT22;40472;53.486;14.542;2022-07-12T11:31:44;22.70;88.10
54576;DHT22;40472;53.486;14.542;2022-07-12T11:34:23;22.60;85.60
54576;DHT22;40472;53.486;14.542;2022-07-12T11:36:57;22.60;88.00
54576;DHT22;40472;53.486;14.542;2022-07-12T11:39:49;22.60;88.30
54576;DHT22;40472;53.486;14.542;2022-07-12T11:42:16;22.70;88.60
54576;DHT22;40472;53.486;14.542;2022-07-12T11:44:49;22.90;87.90
54576;DHT22;40472;53.486;14.542;2022-07-12T11:47:17;22.90;85.00
54576;DHT22;40472;53.486;14.542;2022-07-12T11:49:49;22.80;87.10
54576;DHT22;40472;53.486;14.542;2022-07-12T11:52:16;22.90;86.60
54576;DHT22;40472;53.486;14.542;2022-07-12T11:54:46;23.10;86.80
54576;DHT22;40472;53.486;14.542;2022-07-12T11:57:12;23.20;85.50
54576;DHT22;40472;53.486;14.542;2022-07-12T11:59:39;23.10;83.80
54576;DHT22;40472;53.486;14.542;2022-07-12T12:02:10;23.10;84.10
54576;DHT22;40472;53.486;14.542;2022-07-12T12:04:46;23.30;85.20
54576;DHT22;40472;53.486;14.542;2022-07-12T12:07:13;23.50;85.80
54576;DHT22;40472;53.486;14.542;2022-07-12T12:10:00;23.60;86.40
54576;DHT22;40472;53.486;14.542;2022-07-12T12:12:28;23.60;85.30
54576;DHT22;40472;53.486;14.542;2022-07-12T12:15:06;23.40;85.90
54576;DHT22;40472;53.486;14.542;2022-07-12T12:17:33;23.50;85.80
54576;DHT22;40472;53.486;14.542;2022-07-12T12:20:11;23.80;85.10
54576;DHT22;40472;53.486;14.542;2022-07-12T12:22:38;23.80;84.30
54576;DHT22;40472;53.486;14.542;2022-07-12T12:25:05;23.70;88.60
54576;DHT22;40472;53.486;14.542;2022-07-12T12:27:32;23.60;88.10
54576;DHT22;40472;53.486;14.542;2022-07-12T12:30:07;23.30;88.30
54576;DHT22;40472;53.486;14.542;2022-07-12T12:32:47;23.10;88.90
54576;DHT22;40472;53.486;14.542;2022-07-12T12:35:14;23.20;89.00
54576;DHT22;40472;53.486;14.542;2022-07-12T12:37:47;23.10;90.70
54576;DHT22;40472;53.486;14.542;2022-07-12T12:40:18;23.20;91.30
54576;DHT22;40472;53.486;14.542;2022-07-12T12:42:45;23.20;90.90
54576;DHT22;40472;53.486;14.542;2022-07-12T12:45:21;23.20;90.90
54576;DHT22;40472;53.486;14.542;2022-07-12T12:47:58;23.40;90.70
54576;DHT22;40472;53.486;14.542;2022-07-12T12:50:47;23.40;90.40
54576;DHT22;40472;53.486;14.542;2022-07-12T12:53:14;23.50;89.50
54576;DHT22;40472;53.486;14.542;2022-07-12T12:56:04;23.60;89.40
54576;DHT22;40472;53.486;14.542;2022-07-12T12:58:26;23.70;91.10
54576;DHT22;40472;53.486;14.542;2022-07-12T13:00:54;24.00;88.80
54576;DHT22;40472;53.486;14.542;2022-07-12T13:03:21;24.20;89.40
54576;DHT22;40472;53.486;14.542;2022-07-12T13:05:49;24.20;90.00
54576;DHT22;40472;53.486;14.542;2022-07-12T13:08:15;23.90;90.40
54576;DHT22;40472;53.486;14.542;2022-07-12T13:10:43;23.80;91.90
54576;DHT22;40472;53.486;14.542;2022-07-12T13:13:09;23.60;92.10
54576;DHT22;40472;53.486;14.542;2022-07-12T13:15:36;23.70;90.90
54576;DHT22;40472;53.486;14.542;2022-07-12T13:18:03;23.90;91.00
54576;DHT22;40472;53.486;14.542;2022-07-12T13:20:30;24.20;90.30
54576;DHT22;40472;53.486;14.542;2022-07-12T13:22:56;24.20;90.10
54576;DHT22;40472;53.486;14.542;2022-07-12T13:25:23;24.40;88.20
54576;DHT22;40472;53.486;14.542;2022-07-12T13:27:50;24.70;88.40
54576;DHT22;40472;53.486;14.542;2022-07-12T13:30:19;25.00;86.50
54576;DHT22;40472;53.486;14.542;2022-07-12T13:32:45;25.10;86.60
54576;DHT22;40472;53.486;14.542;2022-07-12T13:35:12;25.10;83.90
54576;DHT22;40472;53.486;14.542;2022-07-12T13:37:40;24.90;84.40
54576;DHT22;40472;53.486;14.542;2022-07-12T13:40:06;24.90;84.20
54576;DHT22;40472;53.486;14.542;2022-07-12T13:42:44;24.70;85.80
54576;DHT22;40472;53.486;14.542;2022-07-12T13:45:16;24.60;84.50
54576;DHT22;40472;53.486;14.542;2022-07-12T13:47:43;24.30;83.40
54576;DHT22;40472;53.486;14.542;2022-07-12T13:50:11;24.40;85.30
54576;DHT22;40472;53.486;14.542;2022-07-12T13:52:37;24.60;83.20
54576;DHT22;40472;53.486;14.542;2022-07-12T13:55:05;24.70;81.80
54576;DHT22;40472;53.486;14.542;2022-07-12T13:57:31;24.70;81.90
54576;DHT22;40472;53.486;14.542;2022-07-12T13:59:58;24.90;82.00
54576;DHT22;40472;53.486;14.542;2022-07-12T14:02:24;24.90;81.80
54576;DHT22;40472;53.486;14.542;2022-07-12T14:04:51;25.20;82.70
54576;DHT22;40472;53.486;14.542;2022-07-12T14:07:17;25.50;80.70
54576;DHT22;40472;53.486;14.542;2022-07-12T14:09:43;25.20;79.00
54576;DHT22;40472;53.486;14.542;2022-07-12T14:12:09;24.90;79.50
54576;DHT22;40472;53.486;14.542;2022-07-12T14:14:35;24.80;80.30
54576;DHT22;40472;53.486;14.542;2022-07-12T14:17:21;24.80;81.90
54576;DHT22;40472;53.486;14.542;2022-07-12T14:19:46;24.50;80.00
54576;DHT22;40472;53.486;14.542;2022-07-12T14:22:12;24.30;79.90
54576;DHT22;40472;53.486;14.542;2022-07-12T14:24:38;24.20;79.20
54576;DHT22;40472;53.486;14.542;2022-07-12T14:27:04;24.20;79.20
54576;DHT22;40472;53.486;14.542;2022-07-12T14:29:31;24.10;79.60
54576;DHT22;40472;53.486;14.542;2022-07-12T14:31:57;23.90;79.60
54576;DHT22;40472;53.486;14.542;2022-07-12T14:34:24;23.90;80.80
54576;DHT22;40472;53.486;14.542;2022-07-12T14:36:50;24.00;80.80
54576;DHT22;40472;53.486;14.542;2022-07-12T14:39:16;24.20;80.50
54576;DHT22;40472;53.486;14.542;2022-07-12T14:41:41;24.10;78.40
54576;DHT22;40472;53.486;14.542;2022-07-12T14:44:07;24.10;77.50
54576;DHT22;40472;53.486;14.542;2022-07-12T14:46:34;24.10;78.20
54576;DHT22;40472;53.486;14.542;2022-07-12T14:49:00;24.10;87.30
54576;DHT22;40472;53.486;14.542;2022-07-12T14:51:26;24.10;91.10
54576;DHT22;40472;53.486;14.542;2022-07-12T14:53:52;23.90;91.60
54576;DHT22;40472;53.486;14.542;2022-07-12T14:56:21;23.70;92.50
54576;DHT22;40472;53.486;14.542;2022-07-12T14:58:47;23.80;93.00
54576;DHT22;40472;53.486;14.542;2022-07-12T15:01:13;23.70;91.70
54576;DHT22;40472;53.486;14.542;2022-07-12T15:03:38;23.70;91.10
54576;DHT22;40472;53.486;14.542;2022-07-12T15:06:05;23.70;92.30
54576;DHT22;40472;53.486;14.542;2022-07-12T15:08:30;23.60;91.00
54576;DHT22;40472;53.486;14.542;2022-07-12T15:10:56;23.50;92.10
54576;DHT22;40472;53.486;14.542;2022-07-12T15:13:23;23.50;92.70
54576;DHT22;40472;53.486;14.542;2022-07-12T15:15:49;23.70;89.80
54576;DHT22;40472;53.486;14.542;2022-07-12T15:18:17;23.80;89.10
54576;DHT22;40472;53.486;14.542;2022-07-12T15:20:43;23.80;91.90
54576;DHT22;40472;53.486;14.542;2022-07-12T15:23:08;23.90;92.10
54576;DHT22;40472;53.486;14.542;2022-07-12T15:25:34;23.70;91.50
54576;DHT22;40472;53.486;14.542;2022-07-12T15:28:00;23.70;90.30
54576;DHT22;40472;53.486;14.542;2022-07-12T15:30:25;23.70;87.10
54576;DHT22;40472;53.486;14.542;2022-07-12T15:32:53;23.90;87.90
54576;DHT22;40472;53.486;14.542;2022-07-12T15:35:21;23.90;85.00
54576;DHT22;40472;53.486;14.542;2022-07-12T15:37:47;23.90;82.30